Time;durP1;ratioP1;P1;durP2;ratioP2;P2;SDS_P1;SDS_P2;PMS_P1;PMS_P2;Temp;Humidity;BMP_temperature;BMP_pressure;BME280_temperature;BME280_humidity;BME280_pressure;Samples;Min_cycle;Max_cycle;Signal;HPM_P1;HPM_P2
2023/08/01 00:02:08;;;;;;;14.97;8.97;;;;;;;22.92;84.44;99838.41;5073026;28;20551;-61
2023/08/01 00:04:39;;;;;;;17.97;8.57;;;;;;;23.07;82.88;99823.09;5083715;28;20058;-59
2023/08/01 00:07:09;;;;;;;14.93;8.47;;;;;;;23.27;82.42;99819.78;5059850;28;20287;-58
2023/08/01 00:09:40;;;;;;;18.57;8.77;;;;;;;23.27;80.65;99834.91;5065788;28;20052;-58
2023/08/01 00:12:12;;;;;;;13.73;7.70;;;;;;;23.12;81.30;99837.78;5056815;28;20128;-59
2023/08/01 00:14:42;;;;;;;18.23;8.57;;;;;;;23.01;81.52;99835.06;5080798;28;20433;-58
2023/08/01 00:17:13;;;;;;;12.47;8.97;;;;;;;23.01;81.52;99816.41;5076931;28;20468;-59
2023/08/01 00:19:44;;;;;;;16.30;8.37;;;;;;;23.10;81.75;99828.19;5076428;28;20094;-58
2023/08/01 00:22:14;;;;;;;20.10;9.30;;;;;;;23.17;81.31;99830.28;5068353;28;20047;-58
2023/08/01 00:24:47;;;;;;;20.37;9.17;;;;;;;23.21;80.67;99831.75;5078542;28;20051;-60
2023/08/01 00:27:19;;;;;;;13.43;8.40;;;;;;;23.34;80.60;99820.13;5087234;28;20070;-58
2023/08/01 00:29:49;;;;;;;18.70;9.30;;;;;;;23.47;80.24;99816.41;5077006;28;20493;-60
2023/08/01 00:32:20;;;;;;;14.07;8.07;;;;;;;23.63;80.25;99810.72;5086278;28;20051;-59
2023/08/01 00:34:52;;;;;;;18.57;8.07;;;;;;;23.83;80.13;99813.69;5068922;28;20539;-57
2023/08/01 00:37:23;;;;;;;23.00;9.30;;;;;;;24.03;78.86;99814.78;5082608;28;20053;-58
2023/08/01 00:39:53;;;;;;;25.77;9.70;;;;;;;24.22;77.38;99808.84;5076014;28;20088;-58
2023/08/01 00:42:26;;;;;;;17.33;9.17;;;;;;;24.24;77.52;99777.53;5086088;28;20135;-58
2023/08/01 00:44:56;;;;;;;15.10;9.27;;;;;;;24.48;75.85;99802.25;5068716;28;20055;-59
2023/08/01 00:47:27;;;;;;;13.97;9.00;;;;;;;24.44;74.96;99808.78;5077779;28;20082;-60
2023/08/01 00:49:57;;;;;;;18.10;9.70;;;;;;;24.40;74.20;99799.31;5067383;28;20056;-59
2023/08/01 00:52:28;;;;;;;17.70;8.90;;;;;;;24.51;75.00;99796.66;5074930;28;20427;-58
2023/08/01 00:55:00;;;;;;;16.70;9.10;;;;;;;24.64;74.92;99790.31;5066604;28;20052;-59
2023/08/01 00:57:44;;;;;;;15.83;9.03;;;;;;;24.72;73.30;99772.66;5076771;28;20048;-60
2023/08/01 01:00:15;;;;;;;17.57;9.53;;;;;;;24.74;72.59;99759.19;5065151;28;20071;-59
2023/08/01 01:02:46;;;;;;;16.13;9.57;;;;;;;24.67;71.87;99766.00;5066204;28;20370;-59
2023/08/01 01:05:17;;;;;;;18.73;9.73;;;;;;;24.48;72.98;99764.00;5077046;28;20194;-60
2023/08/01 01:07:49;;;;;;;13.43;8.97;;;;;;;24.44;73.69;99779.41;5064115;28;20075;-60
2023/08/01 01:10:21;;;;;;;20.03;10.20;;;;;;;24.50;72.85;99760.22;5076572;28;20101;-60
2023/08/01 01:12:55;;;;;;;18.70;9.47;;;;;;;24.57;72.97;99757.06;5065207;28;20430;-59
2023/08/01 01:15:25;;;;;;;19.10;9.60;;;;;;;24.79;72.99;99756.97;5077659;28;20040;-58
2023/08/01 01:17:56;;;;;;;22.53;10.03;;;;;;;25.21;72.36;99745.47;5066140;28;20122;-58
2023/08/01 01:20:35;;;;;;;20.90;10.07;;;;;;;25.65;71.52;99738.94;5075110;28;20471;-59
2023/08/01 01:23:12;;;;;;;16.63;8.93;;;;;;;26.02;70.00;99730.38;5065486;28;20583;-60
2023/08/01 01:25:48;;;;;;;17.63;9.80;;;;;;;26.23;68.28;99723.09;5066855;28;20136;-58
2023/08/01 01:28:19;;;;;;;15.53;8.97;;;;;;;26.22;68.04;99718.69;5075114;28;20145;-59
2023/08/01 01:30:50;;;;;;;19.10;9.50;;;;;;;26.20;67.43;99712.63;5067286;28;20043;-58
2023/08/01 01:33:21;;;;;;;15.63;9.43;;;;;;;26.20;67.94;99711.78;5073885;28;20051;-57
2023/08/01 01:35:53;;;;;;;19.43;9.33;;;;;;;26.11;67.08;99708.13;5064944;28;20343;-59
2023/08/01 01:38:24;;;;;;;22.33;8.73;;;;;;;26.07;67.87;99712.06;5074572;28;20462;-60
2023/08/01 01:40:54;;;;;;;13.27;8.87;;;;;;;26.13;67.46;99700.78;5065144;28;20456;-58
2023/08/01 01:43:25;;;;;;;14.23;9.20;;;;;;;25.81;67.83;99684.94;5079995;28;20076;-58
2023/08/01 01:45:55;;;;;;;26.30;9.90;;;;;;;26.01;67.85;99712.63;5056734;28;20089;-59
2023/08/01 01:48:26;;;;;;;18.40;9.87;;;;;;;25.97;66.44;99705.84;5066408;28;20147;-58
2023/08/01 01:50:58;;;;;;;16.07;9.40;;;;;;;26.06;66.95;99705.03;5063235;28;20412;-58
2023/08/01 01:53:29;;;;;;;15.83;9.10;;;;;;;26.30;67.09;99709.97;5080007;28;20040;-58
2023/08/01 01:56:00;;;;;;;19.50;9.40;;;;;;;26.38;67.05;99709.28;5058934;28;20826;-59
2023/08/01 01:58:31;;;;;;;18.37;9.33;;;;;;;26.58;66.25;99699.44;5085317;28;20130;-58
2023/08/01 02:01:02;;;;;;;13.77;9.03;;;;;;;26.73;66.18;99694.50;5074856;28;20144;-58
2023/08/01 02:03:32;;;;;;;21.27;10.00;;;;;;;26.84;65.71;99691.66;5085620;28;20053;-60
2023/08/01 02:06:05;;;;;;;19.10;9.60;;;;;;;26.82;64.78;99696.31;5071219;28;20040;-59
2023/08/01 02:08:35;;;;;;;23.43;9.47;;;;;;;26.78;64.91;99676.16;5068341;28;20504;-59
2023/08/01 02:11:06;;;;;;;15.90;9.17;;;;;;;26.39;65.18;99670.81;5075367;28;20067;-59
2023/08/01 02:13:37;;;;;;;20.60;9.93;;;;;;;26.00;66.92;99673.44;5076148;28;20090;-61
2023/08/01 02:16:08;;;;;;;21.67;10.07;;;;;;;25.67;67.92;99670.09;5064912;28;20036;-59
2023/08/01 02:18:39;;;;;;;15.57;9.43;;;;;;;25.62;69.02;99653.59;5074316;28;20062;-62
2023/08/01 02:21:11;;;;;;;17.47;9.13;;;;;;;25.69;69.77;99660.09;5067026;28;20047;-59
2023/08/01 02:23:41;;;;;;;15.83;9.13;;;;;;;25.72;69.73;99659.81;5079736;28;20052;-62
2023/08/01 02:26:12;;;;;;;23.57;9.77;;;;;;;25.63;69.28;99639.22;5074303;28;20437;-59
2023/08/01 02:28:43;;;;;;;15.53;9.00;;;;;;;25.72;69.78;99637.56;5085467;28;20056;-61
2023/08/01 02:31:14;;;;;;;14.23;8.83;;;;;;;25.91;69.30;99647.50;5073618;28;20051;-59
2023/08/01 02:33:46;;;;;;;19.27;9.73;;;;;;;25.27;69.81;99573.84;5074204;28;20067;-59
2023/08/01 02:36:19;;;;;;;25.40;9.43;;;;;;;25.45;70.00;99619.47;5083775;28;20047;-59
2023/08/01 02:38:49;;;;;;;12.60;8.23;;;;;;;25.43;70.48;99637.50;5073776;28;20039;-60
2023/08/01 02:41:20;;;;;;;15.33;8.80;;;;;;;25.36;71.33;99631.81;5084424;28;20047;-58
2023/08/01 02:43:50;;;;;;;14.20;8.73;;;;;;;25.32;71.76;99625.91;5074285;28;20051;-60
2023/08/01 02:46:21;;;;;;;18.83;8.73;;;;;;;25.28;71.49;99607.59;5084699;28;20051;-59
2023/08/01 02:48:52;;;;;;;13.00;8.53;;;;;;;25.33;71.89;99610.72;5074247;28;20063;-59
2023/08/01 02:51:24;;;;;;;15.53;8.47;;;;;;;25.35;71.38;99577.50;5084185;28;20470;-58
2023/08/01 02:53:54;;;;;;;16.87;8.30;;;;;;;25.44;71.78;99565.16;5073755;28;20043;-59
2023/08/01 02:56:25;;;;;;;11.73;7.67;;;;;;;25.57;71.58;99575.59;5084476;28;20081;-59
2023/08/01 02:58:57;;;;;;;12.90;7.73;;;;;;;25.69;71.00;99579.84;5074604;28;20381;-60
2023/08/01 03:01:28;;;;;;;19.47;8.37;;;;;;;25.77;69.92;99571.94;5084315;28;20511;-58
2023/08/01 03:03:58;;;;;;;16.87;7.77;;;;;;;25.81;70.32;99565.34;5073704;28;20098;-60
2023/08/01 03:06:31;;;;;;;17.33;8.00;;;;;;;25.82;70.07;99559.00;5084146;28;20108;-58
2023/08/01 03:09:01;;;;;;;15.77;8.23;;;;;;;25.81;70.10;99557.31;5073641;28;20063;-59
2023/08/01 03:11:32;;;;;;;14.07;8.60;;;;;;;26.05;70.50;99561.44;5084226;28;20044;-59
2023/08/01 03:14:04;;;;;;;14.93;8.73;;;;;;;26.22;70.27;99566.06;5069165;28;20090;-60
2023/08/01 03:16:35;;;;;;;13.20;8.90;;;;;;;26.52;69.98;99555.31;5064688;28;20434;-61
2023/08/01 03:19:05;;;;;;;20.97;8.33;;;;;;;26.92;68.64;99552.38;5060546;28;20053;-62
2023/08/01 03:21:38;;;;;;;27.80;8.27;;;;;;;27.34;67.63;99538.53;5081271;28;20494;-61
2023/08/01 03:24:09;;;;;;;16.10;8.97;;;;;;;27.79;66.89;99529.59;5069986;28;20040;-62
2023/08/01 03:26:39;;;;;;;21.67;8.40;;;;;;;28.16;66.19;99525.91;5084259;28;20059;-61
2023/08/01 03:29:10;;;;;;;15.80;8.37;;;;;;;28.39;62.82;99516.31;5073630;28;20057;-59
2023/08/01 03:31:41;;;;;;;17.37;8.57;;;;;;;28.46;63.07;99521.13;5084867;28;20081;-61
2023/08/01 03:34:12;;;;;;;19.33;8.03;;;;;;;28.45;62.60;99525.63;5073555;28;20470;-60
2023/08/01 03:36:45;;;;;;;13.47;7.93;;;;;;;28.33;62.41;99521.47;5078183;28;20109;-58
2023/08/01 03:39:15;;;;;;;14.17;9.03;;;;;;;28.09;62.62;99511.41;5073096;28;20104;-59
2023/08/01 03:41:46;;;;;;;20.83;9.00;;;;;;;27.80;63.72;99509.78;5075022;28;20314;-59
2023/08/01 03:44:17;;;;;;;17.73;9.00;;;;;;;27.49;63.70;99518.22;5088514;28;20059;-59
2023/08/01 03:46:47;;;;;;;14.57;9.00;;;;;;;27.28;64.66;99509.59;5066529;28;20552;-60
2023/08/01 03:49:18;;;;;;;16.73;8.90;;;;;;;27.13;66.02;99495.00;5067772;28;20067;-58
2023/08/01 03:51:50;;;;;;;14.07;8.53;;;;;;;27.14;66.11;99494.00;5057517;28;20487;-62
2023/08/01 03:54:20;;;;;;;14.40;8.27;;;;;;;27.12;66.17;99488.78;5082573;28;20135;-59
2023/08/01 03:56:52;;;;;;;15.87;8.20;;;;;;;27.09;66.85;99483.72;5066484;28;20040;-60
2023/08/01 03:59:22;;;;;;;20.13;8.77;;;;;;;27.22;66.63;99486.09;5082128;28;20123;-59
2023/08/01 04:01:53;;;;;;;19.23;8.90;;;;;;;27.27;67.18;99465.84;5070592;28;20063;-59
2023/08/01 04:04:23;;;;;;;17.13;8.00;;;;;;;27.40;66.79;99465.47;5077070;28;20047;-61
2023/08/01 04:06:55;;;;;;;16.53;8.70;;;;;;;27.41;65.15;99461.81;5086998;28;20040;-59
2023/08/01 04:09:26;;;;;;;15.40;7.20;;;;;;;27.52;65.82;99458.03;5097181;28;20370;-60
2023/08/01 04:11:57;;;;;;;15.67;8.50;;;;;;;27.59;65.03;99463.66;5082813;28;20040;-60
2023/08/01 04:14:28;;;;;;;16.90;7.70;;;;;;;27.45;65.10;99462.34;5079218;28;20231;-59
2023/08/01 04:16:58;;;;;;;16.00;8.23;;;;;;;27.38;65.42;99466.63;5077046;28;20185;-58
2023/08/01 04:19:31;;;;;;;21.13;7.37;;;;;;;27.31;65.36;99469.09;5087090;28;20059;-59
2023/08/01 04:22:03;;;;;;;14.80;7.90;;;;;;;27.30;66.55;99475.44;5075983;28;20047;-61
2023/08/01 04:24:34;;;;;;;17.27;8.83;;;;;;;27.29;66.84;99463.03;5082674;28;20401;-59
2023/08/01 04:27:05;;;;;;;13.07;7.17;;;;;;;27.37;65.97;99465.78;5056522;28;20061;-58
2023/08/01 04:29:36;;;;;;;12.37;6.87;;;;;;;27.42;66.08;99463.50;5086520;28;20035;-57
2023/08/01 04:32:07;;;;;;;15.43;8.00;;;;;;;27.34;66.12;99460.72;5074715;28;20047;-60
2023/08/01 04:34:38;;;;;;;14.70;7.00;;;;;;;27.14;65.96;99459.16;5086856;28;20135;-59
2023/08/01 04:37:11;;;;;;;15.17;6.50;;;;;;;27.01;66.65;99460.34;5075968;28;20081;-58
2023/08/01 04:39:41;;;;;;;10.23;5.63;;;;;;;26.92;66.73;99461.25;5087085;28;20134;-59
2023/08/01 04:42:12;;;;;;;12.80;4.70;;;;;;;26.81;66.95;99458.75;5076914;28;20032;-59
2023/08/01 04:44:42;;;;;;;9.77;4.70;;;;;;;26.60;67.45;99462.53;5087488;28;20437;-58
2023/08/01 04:47:13;;;;;;;8.50;4.40;;;;;;;26.42;68.07;99450.88;5076180;28;20374;-59
2023/08/01 04:49:44;;;;;;;9.50;4.53;;;;;;;26.24;68.30;99461.50;5087450;28;20047;-57
2023/08/01 04:52:16;;;;;;;9.13;4.00;;;;;;;25.71;68.56;99409.31;5086582;28;20486;-58
2023/08/01 04:54:47;;;;;;;8.10;3.60;;;;;;;25.81;68.71;99434.22;5074607;28;20078;-60
2023/08/01 04:57:17;;;;;;;7.63;3.83;;;;;;;25.74;68.61;99451.84;5072845;28;20454;-61
2023/08/01 04:59:48;;;;;;;8.63;3.70;;;;;;;25.65;69.18;99449.16;5069426;28;20466;-61
2023/08/01 05:02:18;;;;;;;16.50;4.33;;;;;;;25.21;69.32;99404.13;5086767;28;20332;-59
2023/08/01 05:04:49;;;;;;;9.73;4.10;;;;;;;25.46;70.22;99450.00;5076438;28;20463;-60
2023/08/01 05:07:21;;;;;;;11.87;4.33;;;;;;;25.46;70.82;99444.66;5086502;28;20102;-58
2023/08/01 05:09:52;;;;;;;10.00;3.77;;;;;;;25.34;70.55;99458.16;5076554;28;20043;-58
2023/08/01 05:12:22;;;;;;;24.50;16.23;;;;;;;25.27;70.79;99457.03;5086761;28;20108;-60
2023/08/01 05:14:53;;;;;;;13.33;7.77;;;;;;;25.16;70.59;99455.34;5075738;28;20507;-59
2023/08/01 05:17:24;;;;;;;13.50;6.37;;;;;;;24.97;71.17;99440.06;5085943;28;20043;-57
2023/08/01 05:19:55;;;;;;;12.00;4.70;;;;;;;25.00;71.29;99449.63;5072188;28;20055;-58
2023/08/01 05:22:27;;;;;;;8.77;4.17;;;;;;;24.93;71.92;99457.34;5100101;28;20125;-58
2023/08/01 05:24:58;;;;;;;10.87;4.13;;;;;;;24.87;72.52;99460.56;5078082;28;20127;-58
2023/08/01 05:27:28;;;;;;;10.70;3.77;;;;;;;24.81;71.99;99462.94;5085710;28;20044;-61
2023/08/01 05:29:59;;;;;;;9.47;3.73;;;;;;;24.71;71.87;99454.88;5064449;28;20039;-59
2023/08/01 05:32:30;;;;;;;12.53;4.13;;;;;;;24.63;72.43;99449.38;5081189;28;20062;-60
2023/08/01 05:35:00;;;;;;;11.80;4.30;;;;;;;24.60;73.12;99441.63;5074080;28;20044;-58
2023/08/01 05:37:32;;;;;;;15.73;6.67;;;;;;;24.53;73.53;99442.16;5072670;28;20052;-59
2023/08/01 05:40:03;;;;;;;11.77;4.73;;;;;;;24.38;73.93;99422.09;5073675;28;20565;-61
2023/08/01 05:42:34;;;;;;;10.87;4.00;;;;;;;24.41;74.54;99427.22;5072720;28;20359;-59
2023/08/01 05:45:05;;;;;;;12.53;6.40;;;;;;;24.32;74.38;99411.97;5063877;28;20384;-58
2023/08/01 05:47:36;;;;;;;14.70;9.10;;;;;;;24.33;74.60;99429.69;5093600;28;20048;-59
2023/08/01 05:50:07;;;;;;;15.07;5.90;;;;;;;24.24;75.04;99414.47;5089450;28;20044;-58
2023/08/01 05:52:39;;;;;;;8.57;4.53;;;;;;;24.25;75.17;99426.84;5085556;28;20039;-60
2023/08/01 05:55:10;;;;;;;10.10;3.77;;;;;;;24.22;74.97;99419.94;5075255;28;20054;-59
2023/08/01 05:57:41;;;;;;;15.67;8.30;;;;;;;24.18;75.29;99415.00;5085284;28;20132;-58
2023/08/01 06:00:13;;;;;;;9.63;4.07;;;;;;;23.96;75.64;99382.13;5074543;28;20043;-58
2023/08/01 06:02:43;;;;;;;8.40;3.80;;;;;;;24.05;75.75;99397.38;5080865;28;20044;-58
2023/08/01 06:05:14;;;;;;;8.00;3.80;;;;;;;24.04;75.78;99403.69;5054700;28;20064;-61
2023/08/01 06:07:46;;;;;;;6.93;3.27;;;;;;;24.03;76.60;99396.66;5061476;28;20460;-59
2023/08/01 06:10:17;;;;;;;14.37;3.77;;;;;;;24.08;76.76;99389.09;5079536;28;20143;-58
2023/08/01 06:12:49;;;;;;;12.50;3.40;;;;;;;24.08;76.22;99391.75;5064387;28;20569;-60
2023/08/01 06:15:32;;;;;;;15.67;3.77;;;;;;;24.13;76.10;99395.88;5071247;28;20056;-60
2023/08/01 06:18:11;;;;;;;9.57;3.07;;;;;;;24.19;75.88;99379.31;5059288;28;20051;-60
2023/08/01 06:20:44;;;;;;;6.53;3.00;;;;;;;24.26;75.29;99372.44;5070984;28;20051;-59
2023/08/01 06:23:16;;;;;;;6.90;2.87;;;;;;;24.30;75.02;99371.22;5060383;28;20048;-60
2023/08/01 06:25:47;;;;;;;8.80;5.50;;;;;;;24.43;74.51;99374.50;5061806;28;20066;-58
2023/08/01 06:28:17;;;;;;;12.43;7.33;;;;;;;24.62;74.33;99364.91;5070367;28;20048;-61
2023/08/01 06:30:48;;;;;;;7.80;4.83;;;;;;;24.85;74.06;99349.47;5064656;28;20518;-61
2023/08/01 06:33:19;;;;;;;8.50;2.67;;;;;;;25.18;72.63;99340.22;5078120;28;20116;-61
2023/08/01 06:36:07;;;;;;;8.63;3.03;;;;;;;25.34;71.29;99335.16;5060697;28;20163;-62
2023/08/01 06:38:47;;;;;;;11.33;2.53;;;;;;;25.54;70.44;99337.81;5060089;28;20047;-65
2023/08/01 06:41:19;;;;;;;4.33;2.70;;;;;;;25.71;70.20;99338.88;5069850;28;20116;-60
2023/08/01 06:43:50;;;;;;;10.10;3.17;;;;;;;25.71;69.20;99320.16;5059797;28;20085;-61
2023/08/01 06:46:21;;;;;;;7.23;2.50;;;;;;;25.56;68.99;99317.97;5070261;28;20138;-61
2023/08/01 06:48:51;;;;;;;7.20;2.57;;;;;;;25.35;69.19;99320.78;5059883;28;20063;-60
2023/08/01 06:51:22;;;;;;;8.70;2.50;;;;;;;25.20;69.43;99316.88;5069744;28;20150;-61
2023/08/01 06:53:54;;;;;;;11.50;2.40;;;;;;;25.11;69.91;99298.97;5060889;28;20063;-62
2023/08/01 06:56:25;;;;;;;11.80;2.40;;;;;;;25.11;69.64;99294.50;5069494;28;20093;-60
2023/08/01 06:59:03;;;;;;;5.63;2.33;;;;;;;25.09;69.71;99298.28;5058804;28;20036;-61
2023/08/01 07:01:38;;;;;;;13.03;2.63;;;;;;;25.15;69.71;99297.72;5070947;28;20048;-60
2023/08/01 07:04:09;;;;;;;24.30;5.60;;;;;;;25.27;69.77;99293.09;5058776;28;20051;-59
2023/08/01 07:06:40;;;;;;;8.03;2.70;;;;;;;25.25;69.14;99287.03;5070440;28;20714;-59
2023/08/01 07:09:13;;;;;;;8.03;2.33;;;;;;;25.40;68.90;99275.75;5071094;28;20053;-61
2023/08/01 07:11:44;;;;;;;8.90;2.63;;;;;;;25.53;68.63;99274.59;5074092;28;20048;-60
2023/08/01 07:14:14;;;;;;;7.73;2.53;;;;;;;25.56;68.29;99285.84;5059337;28;20470;-61
2023/08/01 07:16:46;;;;;;;4.90;2.30;;;;;;;25.52;67.86;99284.44;5065726;28;20408;-60
2023/08/01 07:19:21;;;;;;;9.10;2.53;;;;;;;25.45;67.99;99295.88;5076095;28;20135;-63
2023/08/01 07:21:54;;;;;;;5.80;2.23;;;;;;;25.49;68.18;99284.75;5045967;28;20040;-60
2023/08/01 07:24:30;;;;;;;7.67;2.73;;;;;;;25.43;67.85;99281.78;5076982;28;20035;-62
2023/08/01 07:27:01;;;;;;;14.90;2.90;;;;;;;25.34;68.39;99265.63;5069521;28;20060;-62
2023/08/01 07:29:37;;;;;;;12.93;3.27;;;;;;;25.24;68.54;99246.09;5075179;28;20131;-61
2023/08/01 07:32:11;;;;;;;31.23;3.30;;;;;;;25.15;68.46;99239.75;5048875;28;20123;-62
2023/08/01 07:34:43;;;;;;;6.83;2.20;;;;;;;25.17;69.40;99253.00;5078087;28;20044;-62
2023/08/01 07:37:15;;;;;;;8.00;2.47;;;;;;;25.29;69.05;99259.88;5066138;28;20071;-60
2023/08/01 07:39:52;;;;;;;10.20;2.67;;;;;;;25.18;69.20;99244.00;5051636;28;20596;-62
2023/08/01 07:42:27;;;;;;;11.23;2.37;;;;;;;25.08;68.80;99248.47;5074344;28;20048;-63
2023/08/01 07:44:58;;;;;;;7.83;2.50;;;;;;;25.07;69.46;99265.50;5066021;28;20059;-61
2023/08/01 07:47:32;;;;;;;7.47;2.50;;;;;;;24.92;70.07;99260.59;5077322;28;20067;-61
2023/08/01 07:50:03;;;;;;;8.00;2.97;;;;;;;24.80;70.55;99261.72;5066613;28;20056;-61
2023/08/01 07:52:34;;;;;;;11.30;2.73;;;;;;;24.73;71.09;99244.56;5077644;28;20031;-57
2023/08/01 07:55:11;;;;;;;8.20;2.60;;;;;;;24.65;71.41;99239.06;5064352;28;20051;-61
2023/08/01 07:57:45;;;;;;;11.67;3.10;;;;;;;24.60;72.10;99252.84;5076469;28;20051;-60
2023/08/01 08:00:18;;;;;;;10.43;2.70;;;;;;;24.62;71.62;99268.75;5066792;28;20123;-61
2023/08/01 08:02:51;;;;;;;15.93;2.80;;;;;;;24.67;71.54;99255.81;5047647;28;20116;-63
2023/08/01 08:05:26;;;;;;;10.27;3.13;;;;;;;24.68;71.17;99230.78;5074929;28;20048;-61
2023/08/01 08:08:02;;;;;;;7.63;2.97;;;;;;;24.71;70.74;99185.06;5048487;28;20058;-62
2023/08/01 08:10:38;;;;;;;9.17;2.70;;;;;;;25.41;69.42;99249.88;5060938;28;20056;-59
2023/08/01 08:13:15;;;;;;;8.30;2.47;;;;;;;25.46;68.84;99254.75;5065344;28;20055;-63
2023/08/01 08:15:47;;;;;;;6.07;2.53;;;;;;;25.56;68.61;99243.06;5065309;28;20087;-61
2023/08/01 08:18:19;;;;;;;7.20;2.83;;;;;;;25.66;68.76;99237.69;5076369;28;20051;-62
2023/08/01 08:20:53;;;;;;;5.90;2.70;;;;;;;25.56;68.97;99226.16;5065281;28;20048;-61
2023/08/01 08:23:30;;;;;;;9.87;2.90;;;;;;;25.48;69.04;99213.50;5075706;28;20127;-61
2023/08/01 08:26:04;;;;;;;11.00;3.10;;;;;;;25.27;69.66;99221.75;5064994;28;20051;-58
2023/08/01 08:28:37;;;;;;;8.53;3.10;;;;;;;25.03;70.89;99238.22;5076081;28;20130;-59
2023/08/01 08:31:09;;;;;;;10.00;2.63;;;;;;;25.00;71.66;99210.94;5061417;28;20040;-61
2023/08/01 08:33:40;;;;;;;14.23;3.53;;;;;;;25.20;71.56;99225.16;5070502;28;20044;-60
2023/08/01 08:36:11;;;;;;;10.43;2.90;;;;;;;25.20;71.36;99225.97;5061558;28;20051;-61
2023/08/01 08:38:45;;;;;;;11.07;3.30;;;;;;;25.20;71.67;99231.31;5073758;28;20055;-63
2023/08/01 08:41:24;;;;;;;13.40;2.87;;;;;;;25.28;71.71;99236.78;5062721;28;20044;-59
2023/08/01 08:43:59;;;;;;;6.20;3.43;;;;;;;25.36;71.87;99226.22;5062215;28;20144;-62
2023/08/01 08:46:33;;;;;;;5.17;2.93;;;;;;;25.46;71.38;99236.03;5073329;28;20139;-60
2023/08/01 08:49:05;;;;;;;10.57;2.70;;;;;;;25.48;71.69;99250.13;5063100;28;20095;-60
2023/08/01 08:51:41;;;;;;;12.13;3.80;;;;;;;25.46;72.04;99246.72;5054637;28;20187;-60
2023/08/01 08:54:15;;;;;;;9.00;3.17;;;;;;;25.53;72.15;99258.53;5062348;28;20135;-61
2023/08/01 08:56:50;;;;;;;10.63;3.40;;;;;;;25.49;72.42;99262.50;5062229;28;20083;-60
2023/08/01 08:59:23;;;;;;;8.33;3.07;;;;;;;25.37;72.53;99268.00;5072620;28;20483;-61
2023/08/01 09:02:15;;;;;;;10.90;3.47;;;;;;;24.92;73.17;99239.22;5062695;28;20079;-61
2023/08/01 09:04:53;;;;;;;8.57;3.23;;;;;;;24.79;74.72;99270.72;5063219;28;20340;-60
2023/08/01 09:07:32;;;;;;;10.30;3.33;;;;;;;24.62;75.35;99258.06;5071073;28;20143;-59
2023/08/01 09:12:49;;;;;;;11.13;3.60;;;;;;;23.69;77.89;99207.50;5059917;28;20052;-60
2023/08/01 09:15:21;;;;;;;9.90;3.60;;;;;;;24.11;78.35;99298.13;5072457;28;20031;-61
2023/08/01 09:18:00;;;;;;;17.23;4.27;;;;;;;24.03;79.19;99305.94;5060878;28;20163;-62
2023/08/01 09:20:41;;;;;;;10.23;3.45;;;;;;;23.92;79.79;99314.03;5070579;28;20385;-59
2023/08/01 09:23:24;;;;;;;6.17;3.57;;;;;;;23.83;80.52;99330.84;5060850;28;20048;-62
2023/08/01 09:25:56;;;;;;;11.50;4.33;;;;;;;23.75;81.16;99322.66;5062541;28;20554;-60
2023/08/01 09:28:38;;;;;;;11.17;4.03;;;;;;;23.68;81.58;99327.63;5053592;28;20059;-61
2023/08/01 09:31:11;;;;;;;13.00;3.97;;;;;;;23.65;82.13;99333.22;5060711;28;20058;-62
2023/08/01 09:33:47;;;;;;;10.93;4.53;;;;;;;23.59;82.28;99321.28;5072158;28;20071;-62
2023/08/01 09:40:09;;;;;;;11.57;3.60;;;;;;;23.46;83.57;99318.81;5060378;28;20151;-61
2023/08/01 09:42:44;;;;;;;9.90;3.57;;;;;;;23.39;83.90;99308.81;5071025;28;20140;-60
2023/08/01 09:45:21;;;;;;;17.97;4.20;;;;;;;23.13;83.83;99263.88;5043801;28;20062;-63
2023/08/01 09:47:52;;;;;;;15.77;4.30;;;;;;;23.35;83.86;99302.88;5060890;28;20318;-60
2023/08/01 09:50:31;;;;;;;11.00;4.13;;;;;;;23.30;84.17;99309.56;5071050;28;20105;-59
2023/08/01 09:53:24;;;;;;;11.60;3.90;;;;;;;23.25;84.34;99297.47;5061725;28;20427;-62
2023/08/01 09:55:57;;;;;;;10.90;4.03;;;;;;;23.16;84.34;99262.75;5061590;28;20040;-61
2023/08/01 09:58:36;;;;;;;9.20;4.30;;;;;;;23.20;84.33;99265.03;5071056;28;20040;-62
2023/08/01 10:01:37;;;;;;;7.25;4.05;;;;;;;23.19;84.27;99263.34;5042542;28;20043;-62
2023/08/01 10:04:22;;;;;;;13.40;4.03;;;;;;;23.07;84.62;99243.06;5015006;28;20079;-60
2023/08/01 10:07:26;;;;;;;16.33;3.90;;;;;;;23.06;84.61;99219.22;5059985;28;20103;-62
2023/08/01 10:10:07;;;;;;;11.57;4.00;;;;;;;23.15;84.35;99229.09;5059491;28;20071;-62
2023/08/01 10:12:40;;;;;;;9.50;3.60;;;;;;;23.06;83.35;99212.06;5054030;28;20123;-61
2023/08/01 10:15:13;;;;;;;11.63;4.07;;;;;;;23.20;82.85;99238.38;5060820;28;20056;-63
2023/08/01 10:17:50;;;;;;;10.17;3.87;;;;;;;23.16;82.76;99226.28;5066644;28;20378;-60
2023/08/01 10:20:26;;;;;;;8.48;3.85;;;;;;;23.22;82.77;99240.94;5071265;28;20048;-61
2023/08/01 10:23:00;;;;;;;12.73;3.63;;;;;;;23.14;84.02;99236.25;5060425;28;20036;-62
2023/08/01 10:25:43;;;;;;;11.33;3.67;;;;;;;22.46;84.97;99153.16;5070323;28;20090;-61
2023/08/01 10:28:35;;;;;;;10.60;3.87;;;;;;;22.86;85.55;99239.50;5059704;28;20074;-60
2023/08/01 10:31:14;;;;;;;9.50;3.67;;;;;;;22.76;85.95;99226.94;5043839;28;20508;-60
2023/08/01 10:36:43;;;;;;;13.18;3.65;;;;;;;22.66;86.39;99217.22;5070266;28;20388;-60
2023/08/01 10:39:24;;;;;;;7.80;3.40;;;;;;;22.63;86.58;99223.63;5060188;28;20386;-60
2023/08/01 10:42:02;;;;;;;9.63;4.00;;;;;;;22.51;86.35;99206.00;5043695;28;20147;-61
2023/08/01 10:44:47;;;;;;;11.63;4.20;;;;;;;22.64;86.71;99238.66;5069930;28;20362;-60
2023/08/01 10:47:39;;;;;;;8.18;4.05;;;;;;;22.57;86.94;99232.16;5043014;28;20404;-60
2023/08/01 10:50:18;;;;;;;8.87;3.67;;;;;;;22.58;87.41;99247.13;5059145;28;20694;-59
2023/08/01 10:53:03;;;;;;;11.50;4.13;;;;;;;22.56;87.50;99257.91;5059766;28;20043;-61
2023/08/01 10:55:44;;;;;;;14.70;4.47;;;;;;;22.57;87.33;99256.09;5070911;28;20063;-60
2023/08/01 10:58:21;;;;;;;8.55;4.40;;;;;;;22.56;87.24;99249.06;5061166;28;20047;-61
2023/08/01 11:01:01;;;;;;;9.23;3.97;;;;;;;22.51;87.36;99249.44;5042725;28;21203;-60
2023/08/01 11:03:41;;;;;;;11.37;3.60;;;;;;;22.57;87.80;99256.94;5069759;28;20131;-61
2023/08/01 11:06:16;;;;;;;9.40;3.87;;;;;;;22.54;88.16;99251.88;5059396;28;20147;-63
2023/08/01 11:08:51;;;;;;;17.70;4.40;;;;;;;22.49;88.39;99258.53;5042424;28;20052;-62
2023/08/01 11:11:56;;;;;;;9.70;4.13;;;;;;;22.47;88.48;99249.84;5069367;28;20047;-61
2023/08/01 11:14:32;;;;;;;12.43;4.37;;;;;;;22.51;88.60;99256.59;5069710;28;20055;-61
2023/08/01 11:20:28;;;;;;;8.10;4.07;;;;;;;22.47;88.71;99229.38;5004581;28;20043;-61
2023/08/01 11:23:11;;;;;;;11.87;4.80;;;;;;;22.52;88.50;99247.66;5059886;28;20481;-61
2023/08/01 11:25:51;;;;;;;9.43;3.90;;;;;;;22.48;88.93;99257.69;5052721;28;20137;-60
2023/08/01 11:28:49;;;;;;;9.50;3.73;;;;;;;22.47;89.25;99241.88;5052950;28;20151;-61
2023/08/01 11:31:30;;;;;;;11.47;4.17;;;;;;;22.45;89.50;99228.66;5069841;28;20056;-61
2023/08/01 11:34:08;;;;;;;12.20;4.40;;;;;;;22.45;89.71;99235.81;5015673;28;20053;-62
2023/08/01 11:36:40;;;;;;;11.87;4.10;;;;;;;22.40;90.04;99218.38;5069060;28;20289;-60
2023/08/01 11:39:22;;;;;;;12.03;3.73;;;;;;;22.40;90.18;99212.22;5059435;28;20277;-62
2023/08/01 11:42:18;;;;;;;8.00;3.80;;;;;;;22.37;90.37;99197.34;5041820;28;20051;-62
2023/08/01 11:44:50;;;;;;;11.43;3.87;;;;;;;22.24;90.53;99186.03;5058326;28;20150;-62
2023/08/01 11:47:28;;;;;;;9.33;4.20;;;;;;;22.33;90.73;99200.41;5069870;28;20044;-60
2023/08/01 11:50:27;;;;;;;9.07;3.73;;;;;;;22.31;90.68;99208.50;5058999;28;20055;-62
2023/08/01 11:52:58;;;;;;;10.70;3.83;;;;;;;22.28;91.04;99203.44;5059590;28;20052;-62
2023/08/01 11:58:36;;;;;;;8.03;3.97;;;;;;;22.25;91.69;99201.03;5058600;28;20105;-60
2023/08/01 12:01:12;;;;;;;9.13;4.00;;;;;;;22.22;92.23;99201.28;5057698;28;20048;-61
2023/08/01 12:03:47;;;;;;;14.80;4.37;;;;;;;22.17;92.28;99196.31;5054813;28;20625;-61
2023/08/01 12:06:24;;;;;;;11.50;4.50;;;;;;;22.15;92.53;99198.22;5062183;28;20282;-63
2023/08/01 12:09:09;;;;;;;8.50;4.10;;;;;;;22.14;92.70;99201.00;5062224;28;20141;-60
2023/08/01 12:11:46;;;;;;;11.27;4.70;;;;;;;22.14;92.88;99224.94;5073095;28;20474;-61
2023/08/01 12:14:20;;;;;;;11.80;4.47;;;;;;;21.94;93.14;99195.50;5061237;28;20801;-60